createdAt,value
2018-05-25T00:00:44.881Z,18.74
2018-05-25T00:01:44.891Z,18.78
2018-05-25T00:03:38.858Z,18.72
2018-05-25T00:04:38.354Z,18.71
2018-05-25T00:06:32.825Z,18.78
2018-05-25T00:07:32.797Z,18.76
2018-05-25T00:09:28.746Z,18.76
2018-05-25T00:10:28.756Z,18.66
2018-05-25T00:12:24.687Z,18.78
2018-05-25T00:13:25.208Z,18.68
2018-05-25T00:15:19.155Z,18.68
2018-05-25T00:16:19.151Z,18.59
2018-05-25T00:18:12.628Z,18.60
2018-05-25T00:19:12.613Z,18.57
2018-05-25T00:21:06.022Z,18.68
2018-05-25T00:22:06.025Z,18.61
2018-05-25T00:24:00.499Z,18.59
2018-05-25T00:25:00.494Z,18.66
2018-05-25T00:26:54.932Z,18.65
2018-05-25T00:27:55.447Z,18.65
2018-05-25T00:29:49.405Z,18.81
2018-05-25T00:30:49.394Z,18.61
2018-05-25T00:32:45.374Z,18.72
2018-05-25T00:33:45.342Z,18.81
2018-05-25T00:35:39.799Z,18.72
2018-05-25T00:36:39.795Z,18.79
2018-05-25T00:38:34.747Z,18.82
2018-05-25T00:39:35.760Z,18.87
2018-05-25T00:41:29.209Z,18.81
2018-05-25T00:42:28.659Z,18.86
2018-05-25T00:44:23.631Z,18.78
2018-05-25T00:45:23.131Z,18.76
2018-05-25T00:47:17.581Z,18.78
2018-05-25T00:48:17.585Z,18.74
2018-05-25T00:50:12.044Z,18.81
2018-05-25T00:51:12.035Z,18.78
2018-05-25T00:53:06.484Z,18.76
2018-05-25T00:54:06.481Z,18.82
2018-05-25T00:56:00.959Z,18.86
2018-05-25T00:57:00.949Z,18.79
2018-05-25T00:58:55.905Z,18.75
2018-05-25T00:59:55.418Z,18.75
2018-05-25T01:01:50.348Z,18.78
2018-05-25T01:02:49.844Z,18.72
2018-05-25T01:04:45.317Z,18.74
2018-05-25T01:05:44.300Z,18.76
2018-05-25T01:07:37.756Z,18.76
2018-05-25T01:08:38.682Z,18.71
2018-05-25T01:10:31.715Z,18.74
2018-05-25T01:11:31.302Z,18.69
2018-05-25T01:13:24.672Z,18.65
2018-05-25T01:14:25.681Z,18.66
2018-05-25T01:16:20.572Z,18.63
2018-05-25T01:17:19.145Z,18.71
2018-05-25T01:19:13.585Z,18.63
2018-05-25T01:20:13.596Z,18.63
2018-05-25T01:22:08.053Z,18.65
2018-05-25T01:23:07.045Z,18.61
2018-05-25T01:25:02.993Z,18.57
2018-05-25T01:26:03.002Z,18.61
2018-05-25T01:27:57.480Z,18.59
2018-05-25T01:28:57.449Z,18.50
2018-05-25T01:30:50.926Z,18.59
2018-05-25T01:31:50.861Z,18.51
2018-05-25T01:33:46.817Z,18.57
2018-05-25T01:34:47.329Z,18.50
2018-05-25T01:36:41.276Z,18.63
2018-05-25T01:37:41.273Z,18.56
2018-05-25T01:39:34.731Z,18.54
2018-05-25T01:40:34.724Z,18.49
2018-05-25T01:42:28.184Z,18.47
2018-05-25T01:43:28.687Z,18.41
2018-05-25T01:45:23.162Z,18.44
2018-05-25T01:46:22.647Z,18.41
2018-05-25T01:48:18.096Z,18.39
2018-05-25T01:49:17.079Z,18.41
2018-05-25T01:51:12.045Z,18.26
2018-05-25T01:52:11.506Z,18.19
2018-05-25T01:54:05.976Z,18.29
2018-05-25T01:55:05.957Z,18.27
2018-05-25T01:57:01.945Z,18.31
2018-05-25T01:58:01.918Z,18.21
2018-05-25T01:59:56.379Z,18.20
2018-05-25T02:00:56.384Z,18.19
2018-05-25T02:02:52.317Z,18.16
2018-05-25T02:03:52.319Z,18.19
2018-05-25T02:05:46.282Z,18.14
2018-05-25T02:06:45.781Z,18.13
2018-05-25T02:08:39.740Z,18.14
2018-05-25T02:09:39.237Z,18.13
2018-05-25T02:11:35.200Z,18.16
2018-05-25T02:12:35.152Z,18.06
2018-05-25T02:14:30.158Z,18.01
2018-05-25T02:15:29.585Z,18.06
2018-05-25T02:17:25.550Z,18.03
2018-05-25T02:18:25.548Z,18.01
2018-05-25T02:20:19.006Z,18.06
2018-05-25T02:21:19.507Z,18.01
2018-05-25T02:23:13.445Z,18.08
2018-05-25T02:24:13.455Z,18.02
2018-05-25T02:26:09.417Z,18.16
2018-05-25T02:27:09.400Z,18.16
2018-05-25T02:29:04.369Z,18.17
2018-05-25T02:30:03.873Z,18.19
2018-05-25T02:32:00.828Z,18.14
2018-05-25T02:33:00.328Z,17.99
2018-05-25T02:34:53.277Z,18.20
2018-05-25T02:35:53.272Z,18.16
2018-05-25T02:37:48.235Z,18.13
2018-05-25T02:38:48.661Z,18.17
2018-05-25T02:40:41.188Z,18.17
2018-05-25T02:41:41.184Z,18.14
2018-05-25T02:43:38.147Z,18.17
2018-05-25T02:44:37.652Z,18.11
2018-05-25T02:46:30.617Z,18.14
2018-05-25T02:47:30.623Z,18.17
2018-05-25T02:49:25.092Z,18.16
2018-05-25T02:50:26.076Z,18.14
2018-05-25T02:52:20.045Z,18.17
2018-05-25T02:53:19.558Z,18.19
2018-05-25T02:55:14.497Z,18.14
2018-05-25T02:56:13.994Z,18.16
2018-05-25T02:58:08.482Z,18.14
2018-05-25T02:59:08.443Z,18.17
2018-05-25T03:01:02.865Z,18.13
2018-05-25T03:02:02.850Z,18.14
2018-05-25T03:03:57.330Z,18.03
2018-05-25T03:04:57.305Z,18.14
2018-05-25T03:06:53.286Z,18.01
2018-05-25T03:07:53.764Z,18.05
2018-05-25T03:09:46.735Z,17.96
2018-05-25T03:10:46.699Z,17.92
2018-05-25T03:12:42.693Z,17.96
2018-05-25T03:13:43.170Z,17.92
2018-05-25T03:15:37.142Z,17.92
2018-05-25T03:16:37.130Z,17.84
2018-05-25T03:18:31.085Z,17.86
2018-05-25T03:19:30.568Z,17.95
2018-05-25T03:21:25.543Z,17.95
2018-05-25T03:22:25.042Z,17.95
2018-05-25T03:24:19.966Z,17.96
2018-05-25T03:25:19.444Z,18.01
2018-05-25T03:27:15.907Z,17.96
2018-05-25T03:28:15.391Z,17.99
2018-05-25T03:30:10.843Z,17.98
2018-05-25T03:31:10.854Z,17.92
2018-05-25T03:33:04.331Z,17.94
2018-05-25T03:34:05.298Z,17.90
2018-05-25T03:36:00.287Z,17.92
2018-05-25T03:37:00.763Z,17.88
2018-05-25T03:38:54.744Z,17.84
2018-05-25T03:39:54.720Z,17.83
2018-05-25T03:41:48.183Z,17.86
2018-05-25T03:42:48.179Z,17.86
2018-05-25T03:44:43.128Z,17.90
2018-05-25T03:45:42.607Z,17.83
2018-05-25T03:47:36.062Z,17.81
2018-05-25T03:48:36.090Z,17.80
2018-05-25T03:50:32.033Z,17.81
2018-05-25T03:51:32.527Z,17.86
2018-05-25T03:53:25.978Z,17.81
2018-05-25T03:54:26.487Z,17.79
2018-05-25T03:56:19.937Z,17.84
2018-05-25T03:57:19.938Z,17.81
2018-05-25T03:59:15.391Z,17.83
2018-05-25T04:00:14.388Z,17.79
2018-05-25T04:02:10.363Z,17.95
2018-05-25T04:03:10.351Z,17.94
2018-05-25T04:05:05.299Z,17.96
2018-05-25T04:06:04.808Z,17.98
2018-05-25T04:08:00.191Z,18.01
2018-05-25T04:09:00.251Z,18.05
2018-05-25T04:10:55.190Z,18.08
2018-05-25T04:11:55.180Z,18.08
2018-05-25T04:13:51.158Z,18.01
2018-05-25T04:14:51.155Z,18.03
2018-05-25T04:16:45.626Z,18.03
2018-05-25T04:17:45.595Z,17.94
2018-05-25T04:19:40.035Z,18.02
2018-05-25T04:20:40.057Z,18.05
2018-05-25T04:22:34.999Z,18.11
2018-05-25T04:23:34.494Z,18.16
2018-05-25T04:25:30.482Z,18.10
2018-05-25T04:26:30.444Z,18.14
2018-05-25T04:28:24.927Z,18.17
2018-05-25T04:29:24.901Z,18.11
2018-05-25T04:31:18.399Z,18.16
2018-05-25T04:32:18.302Z,18.19
2018-05-25T04:34:11.781Z,18.14
2018-05-25T04:35:11.782Z,18.16
2018-05-25T04:37:06.737Z,18.14
2018-05-25T04:38:06.229Z,18.11
2018-05-25T04:40:02.204Z,18.20
2018-05-25T04:41:02.175Z,18.27
2018-05-25T04:42:56.655Z,18.24
2018-05-25T04:43:56.609Z,18.31
2018-05-25T04:45:52.596Z,18.41
2018-05-25T04:46:52.599Z,18.34
2018-05-25T04:48:48.514Z,18.38
2018-05-25T04:49:48.536Z,18.42
2018-05-25T04:51:44.455Z,18.54
2018-05-25T04:52:44.454Z,18.49
2018-05-25T04:54:40.924Z,18.78
2018-05-25T04:55:40.927Z,18.82
2018-05-25T04:57:35.374Z,18.99
2018-05-25T04:58:34.859Z,19.06
2018-05-25T05:00:30.853Z,19.19
2018-05-25T05:01:31.826Z,19.32
2018-05-25T05:03:26.734Z,19.34
2018-05-25T05:04:25.296Z,19.35
2018-05-25T05:06:21.277Z,19.40
2018-05-25T05:07:21.260Z,19.32
2018-05-25T05:09:17.229Z,19.19
2018-05-25T05:10:18.226Z,19.23
2018-05-25T05:12:11.667Z,19.25
2018-05-25T05:13:13.209Z,19.35
2018-05-25T05:15:09.131Z,19.40
2018-05-25T05:16:06.141Z,19.38
2018-05-25T05:18:00.628Z,19.23
2018-05-25T05:19:00.610Z,19.24
2018-05-25T05:20:56.513Z,19.27
2018-05-25T05:21:56.567Z,19.20
2018-05-25T05:23:53.480Z,19.34
2018-05-25T05:24:52.505Z,19.32
2018-05-25T05:26:47.000Z,19.30
2018-05-25T05:27:48.448Z,19.46
2018-05-25T05:29:40.417Z,19.61
2018-05-25T05:30:41.408Z,19.68
2018-05-25T05:32:36.381Z,19.82
2018-05-25T05:33:36.393Z,19.74
2018-05-25T05:35:29.817Z,19.97
2018-05-25T05:36:29.805Z,19.93
2018-05-25T05:38:25.763Z,20.20
2018-05-25T05:39:25.765Z,20.15
2018-05-25T05:41:21.746Z,20.26
2018-05-25T05:42:22.217Z,20.34
2018-05-25T05:44:17.670Z,20.34
2018-05-25T05:45:17.664Z,20.40
2018-05-25T05:47:12.110Z,20.40
2018-05-25T05:48:12.117Z,20.32
2018-05-25T05:50:06.576Z,20.54
2018-05-25T05:51:06.571Z,20.51
2018-05-25T05:53:01.041Z,20.57
2018-05-25T05:54:01.026Z,20.53
2018-05-25T05:55:55.497Z,20.57
2018-05-25T05:56:55.987Z,20.56
2018-05-25T05:58:52.447Z,20.56
2018-05-25T05:59:51.944Z,20.63
2018-05-25T06:01:45.935Z,20.66
2018-05-25T06:02:45.893Z,20.63
2018-05-25T06:04:40.344Z,20.44
2018-05-25T06:05:40.354Z,20.53
2018-05-25T06:07:36.315Z,20.54
2018-05-25T06:08:34.778Z,20.57
2018-05-25T06:10:29.754Z,20.58
2018-05-25T06:11:29.247Z,20.75
2018-05-25T06:13:25.711Z,20.67
2018-05-25T06:14:25.201Z,20.57
2018-05-25T06:16:22.162Z,20.67
2018-05-25T06:17:21.154Z,20.61
2018-05-25T06:19:16.692Z,20.60
2018-05-25T06:20:15.609Z,20.66
2018-05-25T06:22:09.068Z,20.58
2018-05-25T06:23:09.058Z,20.49
2018-05-25T06:25:03.054Z,20.61
2018-05-25T06:26:02.521Z,20.63
2018-05-25T06:28:00.485Z,20.60
2018-05-25T06:28:58.991Z,20.58
2018-05-25T06:30:54.477Z,20.68
2018-05-25T06:31:55.367Z,20.68
2018-05-25T06:33:48.877Z,20.72
2018-05-25T06:34:48.889Z,20.82
2018-05-25T06:36:45.765Z,21.01
2018-05-25T06:37:44.800Z,21.12
2018-05-25T06:39:40.790Z,21.36
2018-05-25T06:40:41.775Z,21.46
2018-05-25T06:42:35.275Z,21.53
2018-05-25T06:43:35.768Z,21.58
2018-05-25T06:45:31.695Z,21.68
2018-05-25T06:46:29.690Z,21.68
2018-05-25T06:48:26.655Z,21.82
2018-05-25T06:49:26.647Z,21.62
2018-05-25T06:51:23.125Z,21.61
2018-05-25T06:52:21.589Z,21.43
2018-05-25T06:54:17.569Z,21.53
2018-05-25T06:55:17.570Z,21.64
2018-05-25T06:57:12.034Z,21.66
2018-05-25T06:58:11.025Z,21.62
2018-05-25T07:00:07.008Z,21.66
2018-05-25T07:01:07.479Z,21.76
2018-05-25T07:03:02.979Z,21.74
2018-05-25T07:04:02.974Z,21.73
2018-05-25T07:05:58.922Z,21.64
2018-05-25T07:06:58.947Z,21.56
2018-05-25T07:08:55.433Z,21.48
2018-05-25T07:09:54.914Z,21.53
2018-05-25T07:11:50.862Z,21.64
2018-05-25T07:12:51.354Z,21.61
2018-05-25T07:14:46.821Z,21.61
2018-05-25T07:15:48.300Z,21.71
2018-05-25T07:17:43.280Z,21.93
2018-05-25T07:18:44.266Z,22.02
2018-05-25T07:20:39.716Z,22.09
2018-05-25T07:21:38.745Z,22.07
2018-05-25T07:23:36.671Z,22.11
2018-05-25T07:24:34.680Z,22.09
2018-05-25T07:26:30.637Z,22.08
2018-05-25T07:27:31.635Z,22.09
2018-05-25T07:29:27.140Z,22.09
2018-05-25T07:30:27.617Z,22.23
2018-05-25T07:32:24.089Z,22.26
2018-05-25T07:33:22.591Z,22.31
2018-05-25T07:35:19.066Z,22.38
2018-05-25T07:36:19.044Z,22.29
2018-05-25T07:38:12.022Z,22.51
2018-05-25T07:39:12.012Z,22.51
2018-05-25T07:41:07.976Z,22.61
2018-05-25T07:42:09.465Z,22.63
2018-05-25T07:44:03.889Z,22.71
2018-05-25T07:45:03.947Z,22.71
2018-05-25T07:46:59.854Z,22.82
2018-05-25T07:47:59.853Z,22.91
2018-05-25T07:49:56.328Z,22.94
2018-05-25T07:50:55.814Z,22.85
2018-05-25T07:52:59.768Z,22.97
2018-05-25T07:53:57.784Z,22.96
2018-05-25T07:55:52.754Z,22.94
2018-05-25T07:56:53.253Z,23.04
2018-05-25T07:58:49.155Z,22.96
2018-05-25T07:59:48.236Z,23.01
2018-05-25T08:01:44.727Z,23.29
2018-05-25T08:02:44.154Z,23.26
2018-05-25T08:04:40.646Z,23.41
2018-05-25T08:05:40.127Z,23.55
2018-05-25T08:07:37.097Z,23.64
2018-05-25T08:08:36.100Z,23.53
2018-05-25T08:10:40.235Z,23.64
2018-05-25T08:11:41.062Z,23.57
2018-05-25T08:13:36.189Z,23.63
2018-05-25T08:14:36.200Z,23.70
2018-05-25T08:16:34.195Z,23.64
2018-05-25T08:17:34.232Z,23.84
2018-05-25T08:19:30.635Z,23.82
2018-05-25T08:20:30.159Z,23.87
2018-05-25T08:22:29.659Z,23.89
2018-05-25T08:23:29.100Z,23.92
2018-05-25T08:25:25.210Z,23.94
2018-05-25T08:26:24.765Z,23.96
2018-05-25T08:28:22.177Z,24.07
2018-05-25T08:29:22.219Z,24.26
2018-05-25T08:31:19.723Z,24.02
2018-05-25T08:32:19.665Z,23.93
2018-05-25T08:34:17.094Z,24.04
2018-05-25T08:35:18.011Z,24.17
2018-05-25T08:37:14.067Z,24.30
2018-05-25T08:38:13.584Z,24.42
2018-05-25T08:40:09.064Z,24.30
2018-05-25T08:41:09.021Z,24.39
2018-05-25T08:43:07.483Z,24.40
2018-05-25T08:44:06.977Z,24.49
2018-05-25T08:46:05.439Z,24.55
2018-05-25T08:47:05.113Z,24.63
2018-05-25T08:49:02.573Z,24.51
2018-05-25T08:50:02.068Z,24.52
2018-05-25T08:51:58.058Z,24.34
2018-05-25T08:52:59.042Z,24.45
2018-05-25T08:54:53.998Z,24.40
2018-05-25T08:55:54.024Z,24.54
2018-05-25T08:57:53.483Z,24.52
2018-05-25T08:58:52.197Z,24.44
2018-05-25T09:00:49.659Z,24.55
2018-05-25T09:01:49.653Z,24.64
2018-05-25T09:03:44.085Z,24.55
2018-05-25T09:06:02.981Z,24.63
2018-05-25T09:07:04.040Z,24.61
2018-05-25T09:08:58.031Z,24.19
2018-05-25T09:09:58.032Z,24.30
2018-05-25T09:11:52.509Z,24.54
2018-05-25T09:12:53.494Z,24.55
2018-05-25T09:14:48.494Z,24.77
2018-05-25T09:15:48.467Z,24.86
2018-05-25T09:17:43.441Z,24.89
2018-05-25T09:18:41.998Z,24.82
2018-05-25T09:20:36.467Z,24.48
2018-05-25T09:21:38.477Z,24.48
2018-05-25T09:23:33.945Z,24.59
2018-05-25T09:24:33.434Z,24.52
2018-05-25T09:26:29.930Z,24.54
2018-05-25T09:27:29.425Z,24.69
2018-05-25T09:29:24.453Z,24.90
2018-05-25T09:30:24.471Z,24.80
2018-05-25T09:32:17.938Z,24.93
2018-05-25T09:33:18.914Z,25.01
2018-05-25T09:35:13.897Z,25.07
2018-05-25T09:36:13.909Z,25.22
2018-05-25T09:38:12.379Z,25.22
2018-05-25T09:39:10.891Z,25.24
2018-05-25T09:41:07.376Z,25.22
2018-05-25T09:42:07.300Z,25.24
2018-05-25T09:44:01.930Z,25.09
2018-05-25T09:45:02.728Z,24.92
2018-05-25T09:46:58.833Z,24.94
2018-05-25T09:49:13.841Z,25.07
2018-05-25T09:50:13.845Z,25.12
2018-05-25T09:52:09.809Z,24.93
2018-05-25T09:53:09.808Z,25.00
2018-05-25T09:55:06.773Z,25.23
2018-05-25T09:57:21.741Z,25.49
2018-05-25T09:58:22.233Z,25.37
2018-05-25T10:00:18.696Z,25.29
2018-05-25T10:01:18.704Z,25.45
2018-05-25T10:03:15.227Z,25.52
2018-05-25T10:04:13.710Z,25.74
2018-05-25T10:06:10.687Z,25.85
2018-05-25T10:07:09.705Z,25.91
2018-05-25T10:09:07.714Z,25.88
2018-05-25T10:10:06.671Z,25.75
2018-05-25T10:12:00.182Z,25.67
2018-05-25T10:13:00.180Z,25.76
2018-05-25T10:14:56.705Z,25.84
2018-05-25T10:15:57.149Z,25.89
2018-05-25T10:17:53.168Z,26.23
2018-05-25T10:18:53.140Z,26.32
2018-05-25T10:20:45.633Z,26.34
2018-05-25T10:21:46.125Z,26.34
2018-05-25T10:23:42.106Z,26.41
2018-05-25T10:26:37.567Z,26.53
2018-05-25T10:27:38.568Z,26.52
2018-05-25T10:29:31.537Z,26.22
2018-05-25T10:30:31.048Z,26.19
2018-05-25T10:32:27.021Z,26.19
2018-05-25T10:33:26.996Z,26.39
2018-05-25T10:35:22.973Z,26.52
2018-05-25T10:36:22.957Z,26.57
2018-05-25T10:38:19.453Z,26.63
2018-05-25T10:39:18.941Z,26.49
2018-05-25T10:41:15.491Z,26.52
2018-05-25T10:42:15.412Z,26.44
2018-05-25T10:44:12.839Z,26.37
2018-05-25T10:45:12.837Z,26.32
2018-05-25T10:47:09.324Z,26.20
2018-05-25T10:48:09.815Z,26.27
2018-05-25T10:50:05.316Z,26.39
2018-05-25T10:51:05.320Z,26.52
2018-05-25T10:53:00.782Z,26.67
2018-05-25T10:53:59.281Z,26.72
2018-05-25T10:55:56.800Z,26.72
2018-05-25T10:58:11.271Z,26.41
2018-05-25T10:59:11.230Z,26.42
2018-05-25T11:01:08.201Z,26.27
2018-05-25T11:02:08.727Z,26.42
2018-05-25T11:04:06.163Z,26.64
2018-05-25T11:05:06.147Z,26.71
2018-05-25T11:07:01.111Z,26.81
2018-05-25T11:08:01.116Z,26.79
2018-05-25T11:09:57.117Z,26.81
2018-05-25T11:10:57.096Z,26.87
2018-05-25T11:12:54.557Z,26.84
2018-05-25T11:13:53.060Z,26.96
2018-05-25T11:15:48.028Z,26.94
2018-05-25T11:16:47.524Z,26.94
2018-05-25T11:18:43.525Z,26.82
2018-05-25T11:19:43.514Z,26.86
2018-05-25T11:21:39.981Z,26.74
2018-05-25T11:22:39.442Z,26.99
2018-05-25T11:24:35.439Z,26.87
2018-05-25T11:25:35.427Z,26.75
2018-05-25T11:27:31.399Z,26.82
2018-05-25T11:28:31.401Z,26.90
2018-05-25T11:30:28.855Z,26.76
2018-05-25T11:31:28.360Z,26.84
2018-05-25T11:33:23.364Z,26.97
2018-05-25T11:34:23.370Z,27.06
2018-05-25T11:36:19.339Z,27.23
2018-05-25T11:37:19.339Z,27.28
2018-05-25T11:39:14.339Z,27.41
2018-05-25T11:40:14.811Z,27.49
2018-05-25T11:42:08.342Z,27.55
2018-05-25T11:43:09.311Z,27.52
2018-05-25T11:45:03.334Z,27.34
2018-05-25T11:46:02.854Z,27.34
2018-05-25T11:47:58.774Z,27.36
2018-05-25T11:48:58.804Z,27.42
2018-05-25T11:50:53.761Z,27.09
2018-05-25T11:51:53.762Z,27.09
2018-05-25T11:53:49.219Z,27.12
2018-05-25T11:54:49.208Z,27.06
2018-05-25T11:56:43.686Z,26.96
2018-05-25T11:57:45.173Z,27.04
2018-05-25T11:59:39.642Z,27.19
2018-05-25T12:00:40.635Z,27.11
2018-05-25T12:02:37.043Z,27.12
2018-05-25T12:03:35.617Z,27.08
2018-05-25T12:05:32.504Z,27.01
2018-05-25T12:06:31.648Z,27.08
2018-05-25T12:08:29.535Z,27.06
2018-05-25T12:09:29.557Z,26.90
2018-05-25T12:11:25.500Z,26.86
2018-05-25T12:12:25.507Z,26.59
2018-05-25T12:14:21.492Z,26.68
2018-05-25T12:15:21.486Z,26.63
2018-05-25T12:17:17.443Z,26.75
2018-05-25T12:18:17.455Z,26.93
2018-05-25T12:20:14.421Z,26.78
2018-05-25T12:21:14.454Z,26.93
2018-05-25T12:23:10.400Z,27.09
2018-05-25T12:24:09.476Z,27.18
2018-05-25T12:26:05.437Z,27.26
2018-05-25T12:28:22.930Z,27.24
2018-05-25T12:29:21.406Z,27.23
2018-05-25T12:31:17.883Z,27.31
2018-05-25T12:32:17.397Z,27.42
2018-05-25T12:34:13.305Z,27.46
2018-05-25T12:35:13.312Z,27.55
2018-05-25T12:37:09.275Z,27.41
2018-05-25T12:38:09.271Z,27.18
2018-05-25T12:40:04.229Z,27.05
2018-05-25T12:41:05.727Z,27.06
2018-05-25T12:42:59.723Z,27.28
2018-05-25T12:45:55.185Z,27.48
2018-05-25T12:46:54.689Z,27.57
2018-05-25T12:48:53.947Z,27.46
2018-05-25T12:54:08.347Z,27.69
2018-05-25T12:56:58.297Z,27.49
2018-05-25T12:57:56.364Z,27.46
2018-05-25T12:59:53.323Z,27.45
2018-05-25T13:00:52.365Z,27.38
2018-05-25T13:02:48.291Z,27.38
2018-05-25T13:03:49.289Z,27.38
2018-05-25T13:05:44.251Z,27.48
2018-05-25T13:08:40.240Z,27.46
2018-05-25T13:09:40.236Z,27.51
2018-05-25T13:11:36.203Z,27.48
2018-05-25T13:12:34.691Z,27.52
2018-05-25T13:14:30.172Z,27.64
2018-05-25T13:15:30.150Z,27.66
2018-05-25T13:17:25.687Z,27.76
2018-05-25T13:18:25.140Z,27.74
2018-05-25T13:20:21.126Z,27.76
2018-05-25T13:21:22.105Z,27.69
2018-05-25T13:23:18.603Z,27.65
2018-05-25T13:25:33.579Z,27.66
2018-05-25T13:26:33.553Z,27.62
2018-05-25T13:28:29.023Z,27.64
2018-05-25T13:29:30.009Z,27.57
2018-05-25T13:31:25.980Z,27.52
2018-05-25T13:32:26.421Z,27.41
2018-05-25T13:34:20.960Z,27.38
2018-05-25T13:35:21.927Z,27.30
2018-05-25T13:37:17.409Z,27.18
2018-05-25T13:38:17.402Z,27.18
2018-05-25T13:40:12.890Z,27.24
2018-05-25T13:41:12.868Z,27.26
2018-05-25T13:43:08.834Z,27.30
2018-05-25T13:44:08.844Z,27.36
2018-05-25T13:46:04.817Z,27.45
2018-05-25T13:47:04.812Z,27.38
2018-05-25T13:49:05.293Z,27.30
2018-05-25T13:50:06.265Z,27.37
2018-05-25T13:52:06.267Z,27.34
2018-05-25T13:53:06.753Z,27.45
2018-05-25T13:55:02.733Z,27.48
2018-05-25T13:56:02.757Z,27.57
2018-05-25T13:57:58.217Z,27.66
2018-05-25T13:58:57.738Z,27.52
2018-05-25T14:00:55.703Z,27.53
2018-05-25T14:01:55.772Z,27.59
2018-05-25T14:03:53.765Z,27.84
2018-05-25T14:04:53.669Z,27.75
2018-05-25T14:06:49.677Z,27.71
2018-05-25T14:07:49.664Z,27.72
2018-05-25T14:09:47.647Z,27.94
2018-05-25T14:10:47.642Z,28.08
2018-05-25T14:12:44.639Z,28.24
2018-05-25T14:13:43.647Z,28.05
2018-05-25T14:15:39.581Z,28.01
2018-05-25T14:16:39.579Z,28.05
2018-05-25T14:18:35.621Z,28.28
2018-05-25T14:20:51.726Z,28.55
2018-05-25T14:21:51.485Z,28.60
2018-05-25T14:23:47.491Z,28.61
2018-05-25T14:24:47.474Z,28.70
2018-05-25T14:26:44.463Z,28.78
2018-05-25T14:28:59.948Z,28.46
2018-05-25T14:30:00.444Z,28.49
2018-05-25T14:31:55.434Z,28.45
2018-05-25T14:32:55.414Z,28.38
2018-05-25T14:34:53.387Z,28.31
2018-05-25T14:37:08.897Z,28.28
2018-05-25T14:38:07.422Z,28.03
2018-05-25T14:40:05.791Z,27.84
2018-05-25T14:41:04.354Z,27.72
2018-05-25T14:43:01.898Z,27.75
2018-05-25T14:44:01.552Z,27.71
2018-05-25T14:46:04.566Z,27.62
2018-05-25T14:46:59.505Z,27.62
2018-05-25T14:48:56.479Z,27.51
2018-05-25T14:49:56.482Z,27.53
2018-05-25T14:51:55.984Z,27.42
2018-05-25T14:52:51.477Z,27.48
2018-05-25T14:54:49.591Z,27.46
2018-05-25T14:55:50.443Z,27.36
2018-05-25T14:57:46.610Z,27.37
2018-05-25T14:58:46.519Z,27.36
2018-05-25T15:00:42.606Z,27.43
2018-05-25T15:01:41.672Z,27.45
2018-05-25T15:03:38.633Z,27.48
2018-05-25T15:05:55.581Z,27.59
2018-05-25T15:06:54.604Z,27.74
2018-05-25T15:09:15.575Z,27.90
2018-05-25T15:10:13.074Z,27.84
2018-05-25T15:12:11.303Z,27.79
2018-05-25T15:13:11.383Z,27.68
2018-05-25T15:15:09.947Z,27.37
2018-05-25T15:16:10.459Z,27.33
2018-05-25T15:18:07.420Z,27.28
2018-05-25T15:19:07.427Z,27.34
2018-05-25T15:21:04.755Z,27.36
2018-05-25T15:22:04.554Z,27.34
2018-05-25T15:24:03.160Z,27.45
2018-05-25T15:25:02.530Z,27.61
2018-05-25T15:27:01.045Z,27.26
2018-05-25T15:28:00.509Z,27.23
2018-05-25T15:29:59.005Z,27.43
2018-05-25T15:30:58.681Z,27.48
2018-05-25T15:32:58.141Z,27.36
2018-05-25T15:33:56.844Z,27.28
2018-05-25T15:35:54.887Z,27.42
2018-05-25T15:36:54.792Z,27.41
2018-05-25T15:38:53.722Z,27.31
2018-05-25T15:39:53.620Z,27.28
2018-05-25T15:41:50.139Z,27.15
2018-05-25T15:42:49.611Z,27.15
2018-05-25T15:44:45.596Z,27.12
2018-05-25T15:45:46.589Z,27.19
2018-05-25T15:47:42.577Z,27.31
2018-05-25T15:48:42.433Z,27.24
2018-05-25T15:50:42.908Z,27.36
2018-05-25T15:51:42.902Z,27.41
2018-05-25T15:53:39.393Z,27.51
2018-05-25T15:54:38.857Z,27.51
2018-05-25T15:56:35.354Z,27.68
2018-05-25T15:57:35.362Z,27.69
2018-05-25T15:59:36.316Z,27.80
2018-05-25T16:00:36.303Z,27.93
2018-05-25T16:02:33.373Z,27.84
2018-05-25T16:03:34.333Z,27.90
2018-05-25T16:05:31.352Z,27.91
2018-05-25T16:06:31.481Z,27.89
2018-05-25T16:08:29.537Z,28.09
2018-05-25T16:09:30.307Z,28.11
2018-05-25T16:11:27.980Z,28.24
2018-05-25T16:12:27.448Z,28.28
2018-05-25T16:14:25.588Z,28.12
2018-05-25T16:15:25.593Z,28.06
2018-05-25T16:17:22.600Z,27.96
2018-05-25T16:18:22.566Z,27.81
2018-05-25T16:20:17.539Z,27.61
2018-05-25T16:21:17.060Z,27.37
2018-05-25T16:23:15.019Z,27.23
2018-05-25T16:24:14.996Z,27.09
2018-05-25T16:26:13.243Z,27.11
2018-05-25T16:27:14.013Z,27.06
2018-05-25T16:29:09.703Z,27.15
2018-05-25T16:30:10.060Z,27.23
2018-05-25T16:32:08.615Z,27.33
2018-05-25T16:33:07.274Z,27.33
2018-05-25T16:35:06.272Z,27.18
2018-05-25T16:36:05.548Z,27.23
2018-05-25T16:38:01.418Z,27.09
2018-05-25T16:39:02.335Z,27.12
2018-05-25T16:40:59.904Z,27.19
2018-05-25T16:41:59.551Z,27.13
2018-05-25T16:43:57.596Z,27.08
2018-05-25T16:44:58.528Z,27.01
2018-05-25T16:46:59.026Z,26.86
2018-05-25T16:47:56.506Z,26.74
2018-05-25T16:49:53.658Z,26.71
2018-05-25T16:50:53.700Z,26.64
2018-05-25T16:52:54.158Z,26.74
2018-05-25T16:53:54.136Z,26.69
2018-05-25T16:55:51.597Z,26.63
2018-05-25T16:56:50.618Z,26.59
2018-05-25T16:58:46.109Z,26.47
2018-05-25T16:59:46.080Z,26.52
2018-05-25T17:01:42.565Z,26.61
2018-05-25T17:02:42.543Z,26.60
2018-05-25T17:04:42.529Z,26.52
2018-05-25T17:05:43.530Z,26.52
2018-05-25T17:07:38.542Z,26.61
2018-05-25T17:08:38.496Z,26.60
2018-05-25T17:10:37.586Z,26.49
2018-05-25T17:11:36.716Z,26.49
2018-05-25T17:13:35.185Z,26.42
2018-05-25T17:14:34.803Z,26.35
2018-05-25T17:16:31.277Z,26.39
2018-05-25T17:17:30.776Z,26.42
2018-05-25T17:19:26.730Z,26.35
2018-05-25T17:20:28.296Z,26.35
2018-05-25T17:22:22.683Z,26.35
2018-05-25T17:23:24.254Z,26.35
2018-05-25T17:25:21.695Z,26.35
2018-05-25T17:26:20.844Z,26.27
2018-05-25T17:28:17.311Z,26.23
2018-05-25T17:31:17.304Z,26.30
2018-05-25T17:32:17.824Z,26.20
2018-05-25T17:34:15.515Z,26.15
2018-05-25T17:35:17.263Z,26.15
2018-05-25T17:37:17.951Z,26.15
2018-05-25T17:38:16.020Z,26.22
2018-05-25T17:40:14.079Z,26.01
2018-05-25T17:41:14.123Z,26.00
2018-05-25T17:43:11.078Z,26.03
2018-05-25T17:44:11.603Z,26.04
2018-05-25T17:46:07.569Z,25.91
2018-05-25T17:47:07.508Z,26.06
2018-05-25T17:49:03.502Z,26.01
2018-05-25T17:50:02.988Z,25.99
2018-05-25T17:52:01.491Z,26.06
2018-05-25T17:53:01.928Z,25.96
2018-05-25T17:55:02.671Z,26.00
2018-05-25T17:56:02.594Z,26.07
2018-05-25T17:58:03.071Z,26.06
2018-05-25T17:59:03.552Z,26.00
2018-05-25T18:01:01.189Z,25.89
2018-05-25T18:02:01.195Z,25.93
2018-05-25T18:04:00.623Z,25.84
2018-05-25T18:04:59.127Z,25.79
2018-05-25T18:06:55.111Z,25.76
2018-05-25T18:07:56.098Z,25.75
2018-05-25T18:09:54.084Z,25.75
2018-05-25T18:10:53.066Z,25.79
2018-05-25T18:12:51.052Z,25.79
2018-05-25T18:13:51.544Z,25.76
2018-05-25T18:15:52.499Z,25.81
2018-05-25T18:16:51.496Z,25.81
2018-05-25T18:18:47.526Z,25.74
2018-05-25T18:19:47.483Z,25.70
2018-05-25T18:21:43.948Z,25.62
2018-05-25T18:22:43.412Z,25.59
2018-05-25T18:24:43.801Z,25.51
2018-05-25T18:25:41.553Z,25.51
2018-05-25T18:27:39.509Z,25.60
2018-05-25T18:28:39.513Z,25.54
2018-05-25T18:30:38.987Z,25.41
2018-05-25T18:31:37.724Z,25.49
2018-05-25T18:33:37.540Z,25.48
2018-05-25T18:34:35.813Z,25.48
2018-05-25T18:36:33.746Z,25.45
2018-05-25T18:37:33.762Z,25.44
2018-05-25T18:39:31.739Z,25.39
2018-05-25T18:40:32.744Z,25.34
2018-05-25T18:42:29.944Z,25.38
2018-05-25T18:43:29.913Z,25.37
2018-05-25T18:45:27.900Z,25.34
2018-05-25T18:46:27.895Z,25.34
2018-05-25T18:48:26.374Z,25.39
2018-05-25T18:49:26.779Z,25.23
2018-05-25T18:51:23.846Z,25.29
2018-05-25T18:52:23.781Z,25.24
2018-05-25T18:54:20.270Z,25.19
2018-05-25T18:55:20.276Z,25.15
2018-05-25T18:57:15.725Z,25.19
2018-05-25T18:58:15.733Z,25.07
2018-05-25T19:00:14.191Z,25.01
2018-05-25T19:01:13.663Z,25.02
2018-05-25T19:03:23.632Z,25.00
2018-05-25T19:04:20.874Z,24.80
2018-05-25T19:06:16.843Z,24.78
2018-05-25T19:07:16.879Z,24.64
2018-05-25T19:09:17.937Z,24.75
2018-05-25T19:10:17.514Z,24.77
2018-05-25T19:12:15.253Z,24.64